sensor_id;sensor_type;location;lat;lon;timestamp;pressure;altitude;pressure_sealevel;temperature;humidity
16100;BME280;8154;50.830;12.082;2023-02-04T01:42:50;100343.38;;;22.59;33.42
16100;BME280;8154;50.830;12.082;2023-02-04T01:45:17;100356.38;;;22.62;33.34
16100;BME280;8154;50.830;12.082;2023-02-04T01:47:44;100352.22;;;22.60;33.48
16100;BME280;8154;50.830;12.082;2023-02-04T01:50:14;100362.03;;;22.59;33.41
16100;BME280;8154;50.830;12.082;2023-02-04T01:52:41;100368.38;;;22.58;33.38
16100;BME280;8154;50.830;12.082;2023-02-04T01:55:13;100370.38;;;22.56;33.28
16100;BME280;8154;50.830;12.082;2023-02-04T01:57:40;100374.34;;;22.60;33.34
16100;BME280;8154;50.830;12.082;2023-02-04T02:00:27;100380.34;;;22.62;33.26
16100;BME280;8154;50.830;12.082;2023-02-04T02:02:54;100382.50;;;22.59;33.33
16100;BME280;8154;50.830;12.082;2023-02-04T02:05:43;100389.03;;;22.56;33.50
16100;BME280;8154;50.830;12.082;2023-02-04T02:08:11;100401.84;;;22.61;33.20
16100;BME280;8154;50.830;12.082;2023-02-04T02:10:40;100406.16;;;22.62;33.36
16100;BME280;8154;50.830;12.082;2023-02-04T02:13:10;100414.66;;;22.57;33.40
16100;BME280;8154;50.830;12.082;2023-02-04T02:15:41;100429.84;;;22.57;33.46
16100;BME280;8154;50.830;12.082;2023-02-04T02:18:09;100440.16;;;22.60;33.29
16100;BME280;8154;50.830;12.082;2023-02-04T02:20:36;100440.00;;;22.61;33.26
16100;BME280;8154;50.830;12.082;2023-02-04T02:25:41;100465.28;;;22.57;33.46
16100;BME280;8154;50.830;12.082;2023-02-04T02:28:11;100469.63;;;22.58;33.31
16100;BME280;8154;50.830;12.082;2023-02-04T02:30:39;100481.94;;;22.59;33.29
16100;BME280;8154;50.830;12.082;2023-02-04T02:33:06;100487.44;;;22.58;33.46
16100;BME280;8154;50.830;12.082;2023-02-04T02:35:33;100481.59;;;22.54;33.28
16100;BME280;8154;50.830;12.082;2023-02-04T02:38:00;100486.09;;;22.54;33.50
16100;BME280;8154;50.830;12.082;2023-02-04T02:40:27;100490.59;;;22.53;33.43
16100;BME280;8154;50.830;12.082;2023-02-04T02:42:53;100502.59;;;22.57;33.37
16100;BME280;8154;50.830;12.082;2023-02-04T02:45:26;100504.91;;;22.60;33.28
16100;BME280;8154;50.830;12.082;2023-02-04T02:47:55;100506.09;;;22.58;33.35
16100;BME280;8154;50.830;12.082;2023-02-04T02:50:26;100510.75;;;22.56;33.31
16100;BME280;8154;50.830;12.082;2023-02-04T02:52:54;100515.91;;;22.57;33.25
16100;BME280;8154;50.830;12.082;2023-02-04T02:55:25;100529.75;;;22.61;33.33
16100;BME280;8154;50.830;12.082;2023-02-04T02:57:54;100527.72;;;22.55;33.31
16100;BME280;8154;50.830;12.082;2023-02-04T03:00:22;100526.88;;;22.54;33.32
16100;BME280;8154;50.830;12.082;2023-02-04T04:04:11;100705.72;;;22.51;33.37
16100;BME280;8154;50.830;12.082;2023-02-04T04:06:37;100696.72;;;22.52;33.09
16100;BME280;8154;50.830;12.082;2023-02-04T04:09:04;100705.25;;;22.56;33.32
16100;BME280;8154;50.830;12.082;2023-02-04T04:11:30;100709.72;;;22.55;33.24
16100;BME280;8154;50.830;12.082;2023-02-04T04:14:12;100720.56;;;22.54;33.17
16100;BME280;8154;50.830;12.082;2023-02-04T04:16:39;100726.03;;;22.52;33.31
16100;BME280;8154;50.830;12.082;2023-02-04T04:19:05;100732.91;;;22.55;33.33
16100;BME280;8154;50.830;12.082;2023-02-04T04:21:33;100741.72;;;22.55;33.25
16100;BME280;8154;50.830;12.082;2023-02-04T04:24:02;100742.03;;;22.52;33.38
16100;BME280;8154;50.830;12.082;2023-02-04T04:26:30;100753.69;;;22.51;33.35
16100;BME280;8154;50.830;12.082;2023-02-04T04:28:57;100744.16;;;22.49;33.34
16100;BME280;8154;50.830;12.082;2023-02-04T04:31:27;100757.47;;;22.49;33.42
16100;BME280;8154;50.830;12.082;2023-02-04T04:33:53;100765.47;;;22.49;33.38
16100;BME280;8154;50.830;12.082;2023-02-04T04:36:20;100767.97;;;22.50;33.23
16100;BME280;8154;50.830;12.082;2023-02-04T04:38:47;100766.84;;;22.53;33.29
16100;BME280;8154;50.830;12.082;2023-02-04T04:41:14;100772.88;;;22.55;33.26
16100;BME280;8154;50.830;12.082;2023-02-04T04:43:41;100789.16;;;22.52;33.18
16100;BME280;8154;50.830;12.082;2023-02-04T04:46:08;100783.13;;;22.50;33.30
16100;BME280;8154;50.830;12.082;2023-02-04T04:48:34;100791.69;;;22.53;33.12
16100;BME280;8154;50.830;12.082;2023-02-04T04:51:00;100797.66;;;22.55;33.41
16100;BME280;8154;50.830;12.082;2023-02-04T04:53:27;100797.16;;;22.52;33.16
16100;BME280;8154;50.830;12.082;2023-02-04T04:55:53;100799.25;;;22.48;33.19
16100;BME280;8154;50.830;12.082;2023-02-04T04:58:21;100812.84;;;22.55;33.27
16100;BME280;8154;50.830;12.082;2023-02-04T05:00:47;100821.66;;;22.55;33.14
16100;BME280;8154;50.830;12.082;2023-02-04T05:03:14;100822.81;;;22.53;33.17
16100;BME280;8154;50.830;12.082;2023-02-04T05:05:41;100830.09;;;22.51;33.22
16100;BME280;8154;50.830;12.082;2023-02-04T05:08:09;100835.28;;;22.52;33.27
16100;BME280;8154;50.830;12.082;2023-02-04T05:10:44;100840.28;;;22.55;33.21
16100;BME280;8154;50.830;12.082;2023-02-04T05:13:11;100840.59;;;22.52;33.15
16100;BME280;8154;50.830;12.082;2023-02-04T05:15:38;100847.06;;;22.50;33.23
16100;BME280;8154;50.830;12.082;2023-02-04T05:18:05;100840.59;;;22.52;33.15
16100;BME280;8154;50.830;12.082;2023-02-04T05:20:31;100850.13;;;22.55;33.35
16100;BME280;8154;50.830;12.082;2023-02-04T05:22:58;100857.44;;;22.53;33.28
16100;BME280;8154;50.830;12.082;2023-02-04T05:25:28;100857.88;;;22.48;33.36
16100;BME280;8154;50.830;12.082;2023-02-04T05:27:54;100858.88;;;22.47;33.25
16100;BME280;8154;50.830;12.082;2023-02-04T05:30:21;100864.06;;;22.49;33.33
16100;BME280;8154;50.830;12.082;2023-02-04T05:32:48;100860.38;;;22.50;33.27
16100;BME280;8154;50.830;12.082;2023-02-04T05:35:15;100870.59;;;22.54;33.30
16100;BME280;8154;50.830;12.082;2023-02-04T05:37:41;100871.78;;;22.52;33.08
16100;BME280;8154;50.830;12.082;2023-02-04T05:40:08;100875.41;;;22.51;33.16
16100;BME280;8154;50.830;12.082;2023-02-04T05:42:34;100883.53;;;22.49;33.33
16100;BME280;8154;50.830;12.082;2023-02-04T05:45:01;100890.69;;;22.49;33.13
16100;BME280;8154;50.830;12.082;2023-02-04T05:47:27;100881.00;;;22.48;33.34
16100;BME280;8154;50.830;12.082;2023-02-04T05:49:55;100892.50;;;22.48;33.27
16100;BME280;8154;50.830;12.082;2023-02-04T05:52:22;100900.94;;;22.53;33.24
16100;BME280;8154;50.830;12.082;2023-02-04T05:54:48;100906.91;;;22.55;33.12
16100;BME280;8154;50.830;12.082;2023-02-04T05:57:14;100910.72;;;22.53;33.21
16100;BME280;8154;50.830;12.082;2023-02-04T05:59:43;100921.53;;;22.51;33.25
16100;BME280;8154;50.830;12.082;2023-02-04T06:02:10;100923.91;;;22.54;33.18
16100;BME280;8154;50.830;12.082;2023-02-04T06:04:36;100939.59;;;22.57;33.15
16100;BME280;8154;50.830;12.082;2023-02-04T06:07:02;100947.56;;;22.57;33.10
16100;BME280;8154;50.830;12.082;2023-02-04T06:09:30;100954.22;;;22.53;33.23
16100;BME280;8154;50.830;12.082;2023-02-04T06:11:56;100959.41;;;22.55;33.20
16100;BME280;8154;50.830;12.082;2023-02-04T06:14:24;100949.44;;;22.57;33.23
16100;BME280;8154;50.830;12.082;2023-02-04T06:16:50;100955.72;;;22.56;33.28
16100;BME280;8154;50.830;12.082;2023-02-04T06:19:16;100958.00;;;22.51;33.28
16100;BME280;8154;50.830;12.082;2023-02-04T06:21:43;100964.03;;;22.53;33.20
16100;BME280;8154;50.830;12.082;2023-02-04T06:24:09;100964.56;;;22.56;33.16
16100;BME280;8154;50.830;12.082;2023-02-04T06:26:38;100971.88;;;22.54;33.11
16100;BME280;8154;50.830;12.082;2023-02-04T06:29:05;100968.50;;;22.52;33.16
16100;BME280;8154;50.830;12.082;2023-02-04T06:31:31;100981.69;;;22.54;33.21
16100;BME280;8154;50.830;12.082;2023-02-04T06:33:58;100983.91;;;22.58;33.06
16100;BME280;8154;50.830;12.082;2023-02-04T06:36:25;100990.22;;;22.57;33.10
16100;BME280;8154;50.830;12.082;2023-02-04T06:38:53;100993.19;;;22.54;33.29
16100;BME280;8154;50.830;12.082;2023-02-04T06:41:19;100993.50;;;22.51;33.29
16100;BME280;8154;50.830;12.082;2023-02-04T06:43:46;100995.31;;;22.51;33.28
16100;BME280;8154;50.830;12.082;2023-02-04T06:46:13;101002.44;;;22.50;33.35
16100;BME280;8154;50.830;12.082;2023-02-04T06:48:40;100998.38;;;22.56;33.09
16100;BME280;8154;50.830;12.082;2023-02-04T06:51:07;100993.88;;;22.56;33.17
16100;BME280;8154;50.830;12.082;2023-02-04T06:53:34;100993.03;;;22.56;33.24
16100;BME280;8154;50.830;12.082;2023-02-04T06:56:01;100991.53;;;22.53;33.08
16100;BME280;8154;50.830;12.082;2023-02-04T06:58:28;101003.22;;;22.60;33.21
16100;BME280;8154;50.830;12.082;2023-02-04T07:00:55;101010.25;;;22.61;33.15
16100;BME280;8154;50.830;12.082;2023-02-04T07:03:21;101018.56;;;22.58;33.12
16100;BME280;8154;50.830;12.082;2023-02-04T07:05:48;101020.53;;;22.56;33.12
16100;BME280;8154;50.830;12.082;2023-02-04T07:08:16;101019.06;;;22.62;33.05
16100;BME280;8154;50.830;12.082;2023-02-04T07:10:42;101025.25;;;22.62;33.04
16100;BME280;8154;50.830;12.082;2023-02-04T07:13:09;101037.22;;;22.58;33.20
16100;BME280;8154;50.830;12.082;2023-02-04T07:15:35;101041.84;;;22.56;33.13
16100;BME280;8154;50.830;12.082;2023-02-04T07:18:13;101036.91;;;22.61;33.10
16100;BME280;8154;50.830;12.082;2023-02-04T07:20:39;101037.56;;;22.63;33.06
16100;BME280;8154;50.830;12.082;2023-02-04T07:23:07;101044.22;;;22.59;33.10
16100;BME280;8154;50.830;12.082;2023-02-04T07:25:34;101047.03;;;22.58;33.28
16100;BME280;8154;50.830;12.082;2023-02-04T07:28:01;101047.88;;;22.58;33.14
16100;BME280;8154;50.830;12.082;2023-02-04T07:30:33;101058.81;;;22.55;33.25
16100;BME280;8154;50.830;12.082;2023-02-04T07:32:59;101074.22;;;22.61;33.10
16100;BME280;8154;50.830;12.082;2023-02-04T07:35:26;101079.25;;;22.64;33.04
16100;BME280;8154;50.830;12.082;2023-02-04T07:38:07;101087.38;;;22.63;33.13
16100;BME280;8154;50.830;12.082;2023-02-04T07:40:35;101082.38;;;22.60;33.17
16100;BME280;8154;50.830;12.082;2023-02-04T07:43:02;101094.38;;;22.64;33.04
16100;BME280;8154;50.830;12.082;2023-02-04T07:45:29;101100.56;;;22.64;33.04
16100;BME280;8154;50.830;12.082;2023-02-04T07:47:56;101108.56;;;22.64;33.09
16100;BME280;8154;50.830;12.082;2023-02-04T07:50:24;101116.72;;;22.63;33.12
16100;BME280;8154;50.830;12.082;2023-02-04T07:52:50;101118.22;;;22.65;33.10
16100;BME280;8154;50.830;12.082;2023-02-04T07:55:17;101122.25;;;22.69;33.02
16100;BME280;8154;50.830;12.082;2023-02-04T07:57:44;101124.25;;;22.67;33.07
16100;BME280;8154;50.830;12.082;2023-02-04T08:00:11;101130.03;;;22.63;33.29
16100;BME280;8154;50.830;12.082;2023-02-04T08:02:40;101133.91;;;22.68;33.08
16100;BME280;8154;50.830;12.082;2023-02-04T10:05:26;101314.41;;;22.86;33.00
16100;BME280;8154;50.830;12.082;2023-02-04T10:07:53;101319.13;;;22.92;32.76
16100;BME280;8154;50.830;12.082;2023-02-04T10:10:22;101316.19;;;22.95;32.98
16100;BME280;8154;50.830;12.082;2023-02-04T10:12:55;101315.88;;;22.98;32.96
16100;BME280;8154;50.830;12.082;2023-02-04T10:15:26;101324.59;;;23.00;32.87
16100;BME280;8154;50.830;12.082;2023-02-04T10:18:04;101323.88;;;22.98;32.78
16100;BME280;8154;50.830;12.082;2023-02-04T10:20:34;101317.72;;;22.97;32.83
16100;BME280;8154;50.830;12.082;2023-02-04T10:23:01;101315.06;;;22.97;32.78
16100;BME280;8154;50.830;12.082;2023-02-04T10:25:28;101321.22;;;22.98;32.87
16100;BME280;8154;50.830;12.082;2023-02-04T10:27:59;101318.69;;;22.96;32.81
16100;BME280;8154;50.830;12.082;2023-02-04T10:30:36;101320.41;;;22.97;32.85
16100;BME280;8154;50.830;12.082;2023-02-04T10:33:22;101330.78;;;23.00;32.80
16100;BME280;8154;50.830;12.082;2023-02-04T10:35:52;101328.91;;;23.01;32.80
16100;BME280;8154;50.830;12.082;2023-02-04T10:38:19;101331.72;;;22.99;32.80
16100;BME280;8154;50.830;12.082;2023-02-04T10:40:45;101337.91;;;23.00;32.83
16100;BME280;8154;50.830;12.082;2023-02-04T10:43:19;101337.22;;;22.98;32.91
16100;BME280;8154;50.830;12.082;2023-02-04T10:45:54;101326.84;;;22.95;32.85
16100;BME280;8154;50.830;12.082;2023-02-04T10:48:21;101330.22;;;22.97;32.85
16100;BME280;8154;50.830;12.082;2023-02-04T10:50:48;101336.09;;;23.00;32.91
16100;BME280;8154;50.830;12.082;2023-02-04T10:53:19;101340.44;;;23.01;32.88
16100;BME280;8154;50.830;12.082;2023-02-04T10:56:19;101333.44;;;23.00;32.83
16100;BME280;8154;50.830;12.082;2023-02-04T10:58:47;101325.44;;;23.00;32.82
16100;BME280;8154;50.830;12.082;2023-02-04T11:01:15;101335.66;;;23.05;33.00
16100;BME280;8154;50.830;12.082;2023-02-04T11:03:43;101327.50;;;23.06;32.94
16100;BME280;8154;50.830;12.082;2023-02-04T13:05:45;101360.88;;;23.10;32.80
16100;BME280;8154;50.830;12.082;2023-02-04T13:08:12;101364.25;;;23.12;33.01
16100;BME280;8154;50.830;12.082;2023-02-04T13:10:39;101360.75;;;23.12;32.92
16100;BME280;8154;50.830;12.082;2023-02-04T13:13:07;101360.44;;;23.15;32.73
16100;BME280;8154;50.830;12.082;2023-02-04T13:15:33;101362.97;;;23.16;32.61
16100;BME280;8154;50.830;12.082;2023-02-04T13:18:01;101367.63;;;23.14;32.70
16100;BME280;8154;50.830;12.082;2023-02-04T13:20:29;101373.25;;;23.11;32.91
16100;BME280;8154;50.830;12.082;2023-02-04T13:22:57;101378.28;;;23.14;32.78
16100;BME280;8154;50.830;12.082;2023-02-04T13:25:23;101368.28;;;23.16;32.74
16100;BME280;8154;50.830;12.082;2023-02-04T13:27:50;101376.44;;;23.15;32.76
16100;BME280;8154;50.830;12.082;2023-02-04T13:30:17;101380.13;;;23.14;32.70
16100;BME280;8154;50.830;12.082;2023-02-04T13:32:44;101381.78;;;23.15;32.68
16100;BME280;8154;50.830;12.082;2023-02-04T13:35:10;101391.34;;;23.17;32.67
16100;BME280;8154;50.830;12.082;2023-02-04T13:37:37;101393.31;;;23.15;32.81
16100;BME280;8154;50.830;12.082;2023-02-04T13:40:04;101392.44;;;23.15;32.82
16100;BME280;8154;50.830;12.082;2023-02-04T13:42:31;101390.78;;;23.14;32.83
16100;BME280;8154;50.830;12.082;2023-02-04T13:44:58;101390.78;;;23.14;32.91
16100;BME280;8154;50.830;12.082;2023-02-04T13:47:25;101388.97;;;23.14;32.92
16100;BME280;8154;50.830;12.082;2023-02-04T13:49:52;101395.25;;;23.13;32.78
16100;BME280;8154;50.830;12.082;2023-02-04T13:52:19;101400.44;;;23.15;32.85
16100;BME280;8154;50.830;12.082;2023-02-04T13:54:47;101396.81;;;23.16;32.91
16100;BME280;8154;50.830;12.082;2023-02-04T13:57:15;101393.16;;;23.17;32.80
16100;BME280;8154;50.830;12.082;2023-02-04T13:59:44;101401.00;;;23.18;32.75
16100;BME280;8154;50.830;12.082;2023-02-04T14:02:12;101395.81;;;23.17;32.74
16100;BME280;8154;50.830;12.082;2023-02-04T14:04:45;101398.63;;;23.15;32.69
16100;BME280;8154;50.830;12.082;2023-02-04T14:07:12;101399.50;;;23.16;32.78
16100;BME280;8154;50.830;12.082;2023-02-04T14:09:39;101389.63;;;23.16;32.77
16100;BME280;8154;50.830;12.082;2023-02-04T14:12:07;101403.81;;;23.17;32.88
16100;BME280;8154;50.830;12.082;2023-02-04T14:14:33;101396.81;;;23.16;32.77
16100;BME280;8154;50.830;12.082;2023-02-04T14:17:00;101403.81;;;23.17;32.71
16100;BME280;8154;50.830;12.082;2023-02-04T14:19:26;101407.34;;;23.17;32.86
16100;BME280;8154;50.830;12.082;2023-02-04T14:21:53;101400.16;;;23.18;32.75
16100;BME280;8154;50.830;12.082;2023-02-04T14:24:20;101405.66;;;23.16;32.72
16100;BME280;8154;50.830;12.082;2023-02-04T14:26:46;101412.81;;;23.16;32.85
16100;BME280;8154;50.830;12.082;2023-02-04T14:29:14;101410.84;;;22.62;33.33
16100;BME280;8154;50.830;12.082;2023-02-04T14:31:42;101427.25;;;22.10;34.35
16100;BME280;8154;50.830;12.082;2023-02-04T14:34:09;101426.16;;;22.41;34.10
16100;BME280;8154;50.830;12.082;2023-02-04T14:36:37;101432.47;;;22.68;33.74
16100;BME280;8154;50.830;12.082;2023-02-04T14:39:04;101429.75;;;22.88;33.30
16100;BME280;8154;50.830;12.082;2023-02-04T14:41:30;101427.22;;;22.96;33.24
16100;BME280;8154;50.830;12.082;2023-02-04T14:43:57;101428.16;;;23.04;33.03
16100;BME280;8154;50.830;12.082;2023-02-04T14:46:24;101422.53;;;23.07;33.00
16100;BME280;8154;50.830;12.082;2023-02-04T14:48:51;101423.66;;;23.05;33.23
16100;BME280;8154;50.830;12.082;2023-02-04T14:51:19;101420.00;;;23.06;33.16
16100;BME280;8154;50.830;12.082;2023-02-04T14:53:46;101411.84;;;23.07;33.00
16100;BME280;8154;50.830;12.082;2023-02-04T14:56:15;101407.94;;;23.11;32.94
16100;BME280;8154;50.830;12.082;2023-02-04T14:58:54;101409.75;;;23.11;32.98
16100;BME280;8154;50.830;12.082;2023-02-04T15:01:25;101408.03;;;23.10;32.82
16100;BME280;8154;50.830;12.082;2023-02-04T15:03:53;101405.25;;;23.11;33.06
16100;BME280;8154;50.830;12.082;2023-02-04T15:06:21;101407.78;;;23.13;32.87
16100;BME280;8154;50.830;12.082;2023-02-04T21:09:41;101583.28;;;23.00;32.34
16100;BME280;8154;50.830;12.082;2023-02-04T21:12:11;101592.41;;;22.97;32.32
16100;BME280;8154;50.830;12.082;2023-02-04T21:14:40;101594.66;;;23.02;32.37
16100;BME280;8154;50.830;12.082;2023-02-04T21:17:08;101594.66;;;23.02;32.24
16100;BME280;8154;50.830;12.082;2023-02-04T21:19:37;101593.25;;;22.98;32.49
16100;BME280;8154;50.830;12.082;2023-02-04T21:22:04;101599.00;;;22.93;32.38
16100;BME280;8154;50.830;12.082;2023-02-04T21:24:32;101593.81;;;23.01;32.52
16100;BME280;8154;50.830;12.082;2023-02-04T21:27:00;101605.03;;;23.05;32.41
16100;BME280;8154;50.830;12.082;2023-02-04T21:29:28;101598.28;;;23.01;32.38
16100;BME280;8154;50.830;12.082;2023-02-04T21:32:00;101604.91;;;22.97;32.38
16100;BME280;8154;50.830;12.082;2023-02-04T21:34:32;101608.97;;;23.01;32.21
16100;BME280;8154;50.830;12.082;2023-02-04T21:37:02;101600.00;;;23.02;32.41
16100;BME280;8154;50.830;12.082;2023-02-04T21:39:31;101605.91;;;22.96;32.51
16100;BME280;8154;50.830;12.082;2023-02-04T21:42:01;101602.38;;;22.95;32.35
16100;BME280;8154;50.830;12.082;2023-02-04T21:44:38;101602.81;;;23.00;32.28
16100;BME280;8154;50.830;12.082;2023-02-04T21:47:06;101606.00;;;23.04;32.20
16100;BME280;8154;50.830;12.082;2023-02-04T21:49:33;101606.88;;;23.04;32.11
16100;BME280;8154;50.830;12.082;2023-02-04T21:52:02;101611.19;;;23.05;32.32
16100;BME280;8154;50.830;12.082;2023-02-04T21:54:33;101609.25;;;22.98;32.33
16100;BME280;8154;50.830;12.082;2023-02-04T21:57:04;101609.66;;;22.93;32.42
16100;BME280;8154;50.830;12.082;2023-02-04T21:59:34;101611.91;;;22.98;32.18
16100;BME280;8154;50.830;12.082;2023-02-04T22:02:04;101615.28;;;23.00;32.43
16100;BME280;8154;50.830;12.082;2023-02-04T22:04:32;101605.91;;;22.96;32.31
16100;BME280;8154;50.830;12.082;2023-02-04T22:07:00;101604.34;;;22.93;32.50
16100;BME280;8154;50.830;12.082;2023-02-04T22:09:29;101597.19;;;22.94;32.31
16100;BME280;8154;50.830;12.082;2023-02-04T22:11:57;101603.63;;;23.01;32.22
16100;BME280;8154;50.830;12.082;2023-02-04T22:14:24;101607.84;;;22.94;32.43
16100;BME280;8154;50.830;12.082;2023-02-04T22:17:10;101613.47;;;22.91;32.31
16100;BME280;8154;50.830;12.082;2023-02-04T22:19:38;101600.56;;;22.96;32.21
16100;BME280;8154;50.830;12.082;2023-02-04T22:22:06;101616.28;;;22.99;32.34
16100;BME280;8154;50.830;12.082;2023-02-04T22:24:33;101616.00;;;22.92;32.33
16100;BME280;8154;50.830;12.082;2023-02-04T22:27:00;101610.94;;;22.89;32.31
16100;BME280;8154;50.830;12.082;2023-02-04T22:29:27;101600.69;;;22.94;32.37
16100;BME280;8154;50.830;12.082;2023-02-04T22:31:57;101594.09;;;22.98;32.20
16100;BME280;8154;50.830;12.082;2023-02-04T22:34:25;101596.63;;;23.00;32.10
16100;BME280;8154;50.830;12.082;2023-02-04T22:36:54;101590.16;;;23.02;32.22
16100;BME280;8154;50.830;12.082;2023-02-04T22:39:25;101584.81;;;22.93;32.10
16100;BME280;8154;50.830;12.082;2023-02-04T22:41:52;101582.72;;;22.87;32.29
16100;BME280;8154;50.830;12.082;2023-02-04T22:44:19;101588.31;;;22.93;32.21
16100;BME280;8154;50.830;12.082;2023-02-04T22:46:47;101580.03;;;22.96;32.03
16100;BME280;8154;50.830;12.082;2023-02-04T22:49:15;101575.28;;;22.90;32.42
16100;BME280;8154;50.830;12.082;2023-02-04T22:51:43;101569.53;;;22.85;32.42
16100;BME280;8154;50.830;12.082;2023-02-04T22:54:10;101575.13;;;22.92;32.27
16100;BME280;8154;50.830;12.082;2023-02-04T22:56:38;101574.03;;;22.94;32.17
16100;BME280;8154;50.830;12.082;2023-02-04T22:59:05;101570.09;;;22.89;32.07
16100;BME280;8154;50.830;12.082;2023-02-04T23:01:32;101574.03;;;22.85;32.27
16100;BME280;8154;50.830;12.082;2023-02-04T23:04:05;101584.00;;;22.83;32.27
16100;BME280;8154;50.830;12.082;2023-02-04T23:06:41;101583.56;;;22.77;32.37
16100;BME280;8154;50.830;12.082;2023-02-04T23:09:14;101580.91;;;22.87;32.28
